sensor_id;sensor_type;location;lat;lon;timestamp;P1;durP1;ratioP1;P2;durP2;ratioP2
6821;SDS011;3449;48.728;8.968;2022-10-31T00:00:04;8.67;;;4.53;;
6821;SDS011;3449;48.728;8.968;2022-10-31T00:02:33;11.73;;;5.33;;
6821;SDS011;3449;48.728;8.968;2022-10-31T00:05:00;10.17;;;4.30;;
6821;SDS011;3449;48.728;8.968;2022-10-31T00:07:27;7.60;;;4.10;;
6821;SDS011;3449;48.728;8.968;2022-10-31T00:09:55;9.77;;;4.93;;
6821;SDS011;3449;48.728;8.968;2022-10-31T00:12:22;8.03;;;4.20;;
6821;SDS011;3449;48.728;8.968;2022-10-31T00:14:49;9.77;;;4.70;;
6821;SDS011;3449;48.728;8.968;2022-10-31T00:17:16;11.77;;;4.83;;
6821;SDS011;3449;48.728;8.968;2022-10-31T00:19:43;6.60;;;4.07;;
6821;SDS011;3449;48.728;8.968;2022-10-31T00:22:09;12.37;;;4.77;;
6821;SDS011;3449;48.728;8.968;2022-10-31T00:24:36;8.70;;;4.47;;
6821;SDS011;3449;48.728;8.968;2022-10-31T00:27:04;8.43;;;4.20;;
6821;SDS011;3449;48.728;8.968;2022-10-31T00:29:31;11.37;;;5.10;;
6821;SDS011;3449;48.728;8.968;2022-10-31T00:31:58;9.23;;;4.20;;
6821;SDS011;3449;48.728;8.968;2022-10-31T00:34:25;7.53;;;3.73;;
6821;SDS011;3449;48.728;8.968;2022-10-31T00:36:52;6.47;;;4.17;;
6821;SDS011;3449;48.728;8.968;2022-10-31T00:39:19;10.33;;;5.20;;
6821;SDS011;3449;48.728;8.968;2022-10-31T00:41:46;6.60;;;4.00;;
6821;SDS011;3449;48.728;8.968;2022-10-31T00:44:14;10.43;;;4.87;;
6821;SDS011;3449;48.728;8.968;2022-10-31T00:46:41;9.13;;;4.20;;
6821;SDS011;3449;48.728;8.968;2022-10-31T00:49:07;10.40;;;4.20;;
6821;SDS011;3449;48.728;8.968;2022-10-31T00:51:34;8.17;;;4.10;;
6821;SDS011;3449;48.728;8.968;2022-10-31T00:54:01;8.33;;;4.07;;
6821;SDS011;3449;48.728;8.968;2022-10-31T00:56:28;8.30;;;4.63;;
6821;SDS011;3449;48.728;8.968;2022-10-31T00:58:55;16.50;;;4.67;;
6821;SDS011;3449;48.728;8.968;2022-10-31T01:01:23;11.77;;;4.80;;
6821;SDS011;3449;48.728;8.968;2022-10-31T01:03:50;7.23;;;3.33;;
6821;SDS011;3449;48.728;8.968;2022-10-31T01:06:17;8.57;;;3.90;;
6821;SDS011;3449;48.728;8.968;2022-10-31T01:08:44;7.57;;;4.60;;
6821;SDS011;3449;48.728;8.968;2022-10-31T01:11:13;7.73;;;4.30;;
6821;SDS011;3449;48.728;8.968;2022-10-31T01:13:42;7.10;;;4.37;;
6821;SDS011;3449;48.728;8.968;2022-10-31T01:16:10;7.20;;;4.50;;
6821;SDS011;3449;48.728;8.968;2022-10-31T01:18:39;6.77;;;3.60;;
6821;SDS011;3449;48.728;8.968;2022-10-31T01:21:07;7.07;;;3.60;;
6821;SDS011;3449;48.728;8.968;2022-10-31T01:23:35;12.73;;;4.07;;
6821;SDS011;3449;48.728;8.968;2022-10-31T01:26:05;7.00;;;4.23;;
6821;SDS011;3449;48.728;8.968;2022-10-31T01:28:34;5.23;;;3.80;;
6821;SDS011;3449;48.728;8.968;2022-10-31T01:31:03;5.90;;;4.10;;
6821;SDS011;3449;48.728;8.968;2022-10-31T01:33:32;9.87;;;3.90;;
6821;SDS011;3449;48.728;8.968;2022-10-31T01:36:01;17.50;;;3.60;;
6821;SDS011;3449;48.728;8.968;2022-10-31T01:38:37;6.37;;;3.67;;
6821;SDS011;3449;48.728;8.968;2022-10-31T01:41:04;6.50;;;3.73;;
6821;SDS011;3449;48.728;8.968;2022-10-31T01:43:41;6.20;;;4.10;;
6821;SDS011;3449;48.728;8.968;2022-10-31T01:46:09;5.37;;;3.90;;
6821;SDS011;3449;48.728;8.968;2022-10-31T01:48:36;11.33;;;3.57;;
6821;SDS011;3449;48.728;8.968;2022-10-31T01:51:05;3.90;;;3.10;;
6821;SDS011;3449;48.728;8.968;2022-10-31T01:53:33;11.10;;;3.93;;
6821;SDS011;3449;48.728;8.968;2022-10-31T01:56:00;8.20;;;4.37;;
6821;SDS011;3449;48.728;8.968;2022-10-31T01:58:28;9.77;;;3.67;;
6821;SDS011;3449;48.728;8.968;2022-10-31T02:00:57;6.80;;;3.43;;
6821;SDS011;3449;48.728;8.968;2022-10-31T02:03:26;6.00;;;3.60;;
6821;SDS011;3449;48.728;8.968;2022-10-31T02:05:54;8.07;;;3.80;;
6821;SDS011;3449;48.728;8.968;2022-10-31T02:08:25;12.97;;;4.00;;
6821;SDS011;3449;48.728;8.968;2022-10-31T02:10:54;6.83;;;3.47;;
6821;SDS011;3449;48.728;8.968;2022-10-31T02:13:22;14.97;;;3.33;;
6821;SDS011;3449;48.728;8.968;2022-10-31T02:15:49;6.43;;;3.50;;
6821;SDS011;3449;48.728;8.968;2022-10-31T02:18:18;6.10;;;3.27;;
6821;SDS011;3449;48.728;8.968;2022-10-31T02:20:48;6.43;;;3.60;;
6821;SDS011;3449;48.728;8.968;2022-10-31T02:26:37;5.80;;;3.10;;
6821;SDS011;3449;48.728;8.968;2022-10-31T02:32:16;6.93;;;3.10;;
6821;SDS011;3449;48.728;8.968;2022-10-31T02:34:48;7.47;;;3.20;;
6821;SDS011;3449;48.728;8.968;2022-10-31T02:37:22;6.10;;;3.50;;
6821;SDS011;3449;48.728;8.968;2022-10-31T02:39:54;6.73;;;2.77;;
6821;SDS011;3449;48.728;8.968;2022-10-31T02:42:26;7.10;;;3.37;;
6821;SDS011;3449;48.728;8.968;2022-10-31T02:45:00;6.10;;;3.30;;
6821;SDS011;3449;48.728;8.968;2022-10-31T02:47:34;6.90;;;3.27;;
6821;SDS011;3449;48.728;8.968;2022-10-31T02:50:04;6.40;;;3.63;;
6821;SDS011;3449;48.728;8.968;2022-10-31T02:52:35;10.20;;;3.10;;
6821;SDS011;3449;48.728;8.968;2022-10-31T02:55:09;16.20;;;4.00;;
6821;SDS011;3449;48.728;8.968;2022-10-31T02:57:38;6.43;;;3.30;;
6821;SDS011;3449;48.728;8.968;2022-10-31T03:00:07;6.03;;;3.70;;
6821;SDS011;3449;48.728;8.968;2022-10-31T03:05:30;7.97;;;4.90;;
6821;SDS011;3449;48.728;8.968;2022-10-31T03:08:06;12.07;;;5.00;;
6821;SDS011;3449;48.728;8.968;2022-10-31T03:10:41;10.47;;;4.17;;
6821;SDS011;3449;48.728;8.968;2022-10-31T03:13:12;6.63;;;4.07;;
6821;SDS011;3449;48.728;8.968;2022-10-31T03:15:48;5.00;;;3.20;;
6821;SDS011;3449;48.728;8.968;2022-10-31T03:18:20;6.70;;;4.07;;
6821;SDS011;3449;48.728;8.968;2022-10-31T03:20:52;7.73;;;3.20;;
6821;SDS011;3449;48.728;8.968;2022-10-31T03:23:21;5.53;;;2.87;;
6821;SDS011;3449;48.728;8.968;2022-10-31T03:25:50;7.93;;;6.33;;
6821;SDS011;3449;48.728;8.968;2022-10-31T03:28:22;16.37;;;9.90;;
6821;SDS011;3449;48.728;8.968;2022-10-31T03:31:05;14.90;;;9.03;;
6821;SDS011;3449;48.728;8.968;2022-10-31T03:33:35;13.50;;;6.67;;
6821;SDS011;3449;48.728;8.968;2022-10-31T03:36:05;9.40;;;4.43;;
6821;SDS011;3449;48.728;8.968;2022-10-31T03:38:35;5.60;;;3.20;;
6821;SDS011;3449;48.728;8.968;2022-10-31T03:41:04;5.70;;;3.10;;
6821;SDS011;3449;48.728;8.968;2022-10-31T03:43:38;8.80;;;3.40;;
6821;SDS011;3449;48.728;8.968;2022-10-31T03:46:08;5.10;;;2.80;;
6821;SDS011;3449;48.728;8.968;2022-10-31T03:48:37;4.90;;;2.83;;
6821;SDS011;3449;48.728;8.968;2022-10-31T03:51:06;8.00;;;3.20;;
6821;SDS011;3449;48.728;8.968;2022-10-31T03:53:39;5.20;;;3.43;;
6821;SDS011;3449;48.728;8.968;2022-10-31T03:56:11;12.50;;;3.10;;
6821;SDS011;3449;48.728;8.968;2022-10-31T03:58:45;4.77;;;2.80;;
6821;SDS011;3449;48.728;8.968;2022-10-31T04:01:17;6.40;;;3.43;;
6821;SDS011;3449;48.728;8.968;2022-10-31T04:03:47;7.07;;;3.20;;
6821;SDS011;3449;48.728;8.968;2022-10-31T04:06:15;3.13;;;2.63;;
6821;SDS011;3449;48.728;8.968;2022-10-31T04:08:45;6.17;;;3.33;;
6821;SDS011;3449;48.728;8.968;2022-10-31T04:11:16;4.23;;;3.10;;
6821;SDS011;3449;48.728;8.968;2022-10-31T04:13:47;5.53;;;3.43;;
6821;SDS011;3449;48.728;8.968;2022-10-31T04:16:15;9.40;;;3.83;;
6821;SDS011;3449;48.728;8.968;2022-10-31T04:18:42;11.70;;;3.47;;
6821;SDS011;3449;48.728;8.968;2022-10-31T04:21:11;10.00;;;3.57;;
6821;SDS011;3449;48.728;8.968;2022-10-31T04:23:38;11.40;;;3.20;;
6821;SDS011;3449;48.728;8.968;2022-10-31T04:26:05;9.50;;;3.03;;
6821;SDS011;3449;48.728;8.968;2022-10-31T04:28:32;5.03;;;2.53;;
6821;SDS011;3449;48.728;8.968;2022-10-31T04:30:59;2.70;;;2.27;;
6821;SDS011;3449;48.728;8.968;2022-10-31T04:33:26;5.10;;;3.47;;
6821;SDS011;3449;48.728;8.968;2022-10-31T04:35:53;7.20;;;3.30;;
6821;SDS011;3449;48.728;8.968;2022-10-31T04:38:21;5.83;;;3.07;;
6821;SDS011;3449;48.728;8.968;2022-10-31T04:40:48;7.03;;;2.20;;
6821;SDS011;3449;48.728;8.968;2022-10-31T04:43:14;7.30;;;2.73;;
6821;SDS011;3449;48.728;8.968;2022-10-31T04:45:41;3.93;;;3.00;;
6821;SDS011;3449;48.728;8.968;2022-10-31T04:48:08;4.70;;;3.00;;
6821;SDS011;3449;48.728;8.968;2022-10-31T04:50:38;9.50;;;3.70;;
6821;SDS011;3449;48.728;8.968;2022-10-31T04:53:05;5.83;;;3.33;;
6821;SDS011;3449;48.728;8.968;2022-10-31T04:55:33;4.90;;;3.10;;
6821;SDS011;3449;48.728;8.968;2022-10-31T04:58:01;9.70;;;3.13;;
6821;SDS011;3449;48.728;8.968;2022-10-31T05:00:29;6.73;;;2.80;;
6821;SDS011;3449;48.728;8.968;2022-10-31T05:02:56;3.53;;;2.67;;
6821;SDS011;3449;48.728;8.968;2022-10-31T05:05:24;8.40;;;3.43;;
6821;SDS011;3449;48.728;8.968;2022-10-31T05:07:54;5.20;;;2.60;;
6821;SDS011;3449;48.728;8.968;2022-10-31T05:10:22;11.27;;;3.30;;
6821;SDS011;3449;48.728;8.968;2022-10-31T05:12:52;4.53;;;3.00;;
6821;SDS011;3449;48.728;8.968;2022-10-31T05:15:21;4.57;;;3.20;;
6821;SDS011;3449;48.728;8.968;2022-10-31T05:17:49;4.20;;;3.00;;
6821;SDS011;3449;48.728;8.968;2022-10-31T05:20:17;4.50;;;2.80;;
6821;SDS011;3449;48.728;8.968;2022-10-31T05:22:46;5.43;;;3.40;;
6821;SDS011;3449;48.728;8.968;2022-10-31T05:25:14;7.63;;;3.70;;
6821;SDS011;3449;48.728;8.968;2022-10-31T05:27:43;5.47;;;2.73;;
6821;SDS011;3449;48.728;8.968;2022-10-31T05:30:13;5.67;;;3.33;;
6821;SDS011;3449;48.728;8.968;2022-10-31T05:32:43;7.07;;;3.20;;
6821;SDS011;3449;48.728;8.968;2022-10-31T05:35:12;6.40;;;3.23;;
6821;SDS011;3449;48.728;8.968;2022-10-31T05:37:40;4.60;;;3.30;;
6821;SDS011;3449;48.728;8.968;2022-10-31T05:40:08;4.93;;;2.90;;
6821;SDS011;3449;48.728;8.968;2022-10-31T05:42:37;7.10;;;3.30;;
6821;SDS011;3449;48.728;8.968;2022-10-31T05:45:05;6.90;;;3.40;;
6821;SDS011;3449;48.728;8.968;2022-10-31T05:47:34;10.20;;;3.70;;
6821;SDS011;3449;48.728;8.968;2022-10-31T05:50:01;6.30;;;4.10;;
6821;SDS011;3449;48.728;8.968;2022-10-31T05:52:29;7.83;;;3.87;;
6821;SDS011;3449;48.728;8.968;2022-10-31T05:54:56;7.13;;;3.43;;
6821;SDS011;3449;48.728;8.968;2022-10-31T05:57:22;9.80;;;4.33;;
6821;SDS011;3449;48.728;8.968;2022-10-31T05:59:49;9.60;;;4.20;;
6821;SDS011;3449;48.728;8.968;2022-10-31T06:02:17;6.13;;;3.10;;
6821;SDS011;3449;48.728;8.968;2022-10-31T06:04:46;7.20;;;3.07;;
6821;SDS011;3449;48.728;8.968;2022-10-31T06:07:13;11.53;;;3.43;;
6821;SDS011;3449;48.728;8.968;2022-10-31T06:09:40;5.73;;;3.00;;
6821;SDS011;3449;48.728;8.968;2022-10-31T06:12:06;10.07;;;3.30;;
6821;SDS011;3449;48.728;8.968;2022-10-31T06:14:33;9.23;;;4.30;;
6821;SDS011;3449;48.728;8.968;2022-10-31T06:17:01;11.27;;;4.33;;
6821;SDS011;3449;48.728;8.968;2022-10-31T06:19:27;14.73;;;4.67;;
6821;SDS011;3449;48.728;8.968;2022-10-31T06:21:56;6.87;;;4.00;;
6821;SDS011;3449;48.728;8.968;2022-10-31T06:24:22;6.60;;;3.70;;
6821;SDS011;3449;48.728;8.968;2022-10-31T06:26:49;4.67;;;3.23;;
6821;SDS011;3449;48.728;8.968;2022-10-31T06:29:16;12.73;;;3.70;;
6821;SDS011;3449;48.728;8.968;2022-10-31T06:31:43;6.43;;;2.83;;
6821;SDS011;3449;48.728;8.968;2022-10-31T06:34:10;7.60;;;3.50;;
6821;SDS011;3449;48.728;8.968;2022-10-31T06:36:37;5.73;;;3.23;;
6821;SDS011;3449;48.728;8.968;2022-10-31T06:39:05;3.20;;;2.90;;
6821;SDS011;3449;48.728;8.968;2022-10-31T06:41:32;5.80;;;3.30;;
6821;SDS011;3449;48.728;8.968;2022-10-31T06:44:01;5.33;;;3.20;;
6821;SDS011;3449;48.728;8.968;2022-10-31T06:46:28;8.37;;;3.13;;
6821;SDS011;3449;48.728;8.968;2022-10-31T06:48:55;3.70;;;2.97;;
6821;SDS011;3449;48.728;8.968;2022-10-31T06:51:22;6.13;;;3.50;;
6821;SDS011;3449;48.728;8.968;2022-10-31T06:53:49;4.73;;;2.90;;
6821;SDS011;3449;48.728;8.968;2022-10-31T06:56:17;7.43;;;3.37;;
6821;SDS011;3449;48.728;8.968;2022-10-31T06:58:44;7.47;;;3.63;;
6821;SDS011;3449;48.728;8.968;2022-10-31T07:01:11;6.10;;;3.00;;
6821;SDS011;3449;48.728;8.968;2022-10-31T07:03:38;8.30;;;3.80;;
6821;SDS011;3449;48.728;8.968;2022-10-31T07:06:05;5.17;;;3.37;;
6821;SDS011;3449;48.728;8.968;2022-10-31T07:08:32;5.07;;;3.10;;
6821;SDS011;3449;48.728;8.968;2022-10-31T07:10:59;6.60;;;3.40;;
6821;SDS011;3449;48.728;8.968;2022-10-31T07:13:27;10.43;;;3.70;;
6821;SDS011;3449;48.728;8.968;2022-10-31T07:16:01;10.20;;;3.37;;
6821;SDS011;3449;48.728;8.968;2022-10-31T07:18:39;6.77;;;3.30;;
6821;SDS011;3449;48.728;8.968;2022-10-31T07:21:16;7.77;;;2.90;;
6821;SDS011;3449;48.728;8.968;2022-10-31T07:23:42;5.20;;;3.27;;
6821;SDS011;3449;48.728;8.968;2022-10-31T07:26:10;9.90;;;3.40;;
6821;SDS011;3449;48.728;8.968;2022-10-31T07:28:38;4.50;;;3.10;;
6821;SDS011;3449;48.728;8.968;2022-10-31T07:31:05;3.10;;;2.80;;
6821;SDS011;3449;48.728;8.968;2022-10-31T07:33:32;9.53;;;3.07;;
6821;SDS011;3449;48.728;8.968;2022-10-31T07:35:59;4.00;;;3.00;;
6821;SDS011;3449;48.728;8.968;2022-10-31T07:38:26;9.97;;;2.90;;
6821;SDS011;3449;48.728;8.968;2022-10-31T07:40:53;9.73;;;3.57;;
6821;SDS011;3449;48.728;8.968;2022-10-31T07:43:20;11.90;;;3.20;;
6821;SDS011;3449;48.728;8.968;2022-10-31T07:45:52;7.07;;;3.00;;
6821;SDS011;3449;48.728;8.968;2022-10-31T07:48:19;7.73;;;3.30;;
6821;SDS011;3449;48.728;8.968;2022-10-31T07:50:46;13.63;;;3.00;;
6821;SDS011;3449;48.728;8.968;2022-10-31T07:53:14;10.57;;;4.10;;
6821;SDS011;3449;48.728;8.968;2022-10-31T07:55:41;6.80;;;3.90;;
6821;SDS011;3449;48.728;8.968;2022-10-31T07:58:09;7.00;;;3.00;;
6821;SDS011;3449;48.728;8.968;2022-10-31T08:00:38;6.37;;;3.70;;
6821;SDS011;3449;48.728;8.968;2022-10-31T08:03:08;9.10;;;3.47;;
6821;SDS011;3449;48.728;8.968;2022-10-31T08:05:35;11.00;;;4.00;;
6821;SDS011;3449;48.728;8.968;2022-10-31T08:08:03;16.20;;;4.70;;
6821;SDS011;3449;48.728;8.968;2022-10-31T08:10:31;9.83;;;4.03;;
6821;SDS011;3449;48.728;8.968;2022-10-31T08:12:59;7.63;;;4.80;;
6821;SDS011;3449;48.728;8.968;2022-10-31T08:15:27;8.83;;;5.20;;
6821;SDS011;3449;48.728;8.968;2022-10-31T08:17:54;11.03;;;5.60;;
6821;SDS011;3449;48.728;8.968;2022-10-31T08:20:23;9.33;;;5.37;;
6821;SDS011;3449;48.728;8.968;2022-10-31T08:22:56;18.20;;;5.20;;
6821;SDS011;3449;48.728;8.968;2022-10-31T08:25:24;8.80;;;4.20;;
6821;SDS011;3449;48.728;8.968;2022-10-31T08:27:52;5.37;;;3.10;;
6821;SDS011;3449;48.728;8.968;2022-10-31T08:30:21;8.20;;;3.33;;
6821;SDS011;3449;48.728;8.968;2022-10-31T08:32:57;11.27;;;3.13;;
6821;SDS011;3449;48.728;8.968;2022-10-31T08:35:29;8.57;;;3.60;;
6821;SDS011;3449;48.728;8.968;2022-10-31T08:37:57;5.23;;;2.80;;
6821;SDS011;3449;48.728;8.968;2022-10-31T08:40:24;10.90;;;3.70;;
6821;SDS011;3449;48.728;8.968;2022-10-31T08:42:56;7.77;;;3.70;;
6821;SDS011;3449;48.728;8.968;2022-10-31T08:45:23;10.07;;;3.43;;
6821;SDS011;3449;48.728;8.968;2022-10-31T08:47:51;8.57;;;3.07;;
6821;SDS011;3449;48.728;8.968;2022-10-31T08:50:18;14.63;;;4.80;;
6821;SDS011;3449;48.728;8.968;2022-10-31T08:52:46;16.37;;;5.17;;
6821;SDS011;3449;48.728;8.968;2022-10-31T08:55:13;17.80;;;4.50;;
6821;SDS011;3449;48.728;8.968;2022-10-31T08:57:40;25.30;;;7.43;;
6821;SDS011;3449;48.728;8.968;2022-10-31T09:00:07;17.83;;;5.07;;
6821;SDS011;3449;48.728;8.968;2022-10-31T09:02:35;4.37;;;3.30;;
6821;SDS011;3449;48.728;8.968;2022-10-31T09:05:03;7.10;;;3.90;;
6821;SDS011;3449;48.728;8.968;2022-10-31T09:07:30;8.27;;;3.47;;
6821;SDS011;3449;48.728;8.968;2022-10-31T09:09:59;9.50;;;3.97;;
6821;SDS011;3449;48.728;8.968;2022-10-31T09:12:25;6.27;;;3.10;;
6821;SDS011;3449;48.728;8.968;2022-10-31T09:14:52;9.90;;;3.17;;
6821;SDS011;3449;48.728;8.968;2022-10-31T09:17:19;6.70;;;3.30;;
6821;SDS011;3449;48.728;8.968;2022-10-31T09:19:46;13.37;;;3.90;;
6821;SDS011;3449;48.728;8.968;2022-10-31T09:22:13;5.80;;;3.30;;
6821;SDS011;3449;48.728;8.968;2022-10-31T09:24:40;5.13;;;3.37;;
6821;SDS011;3449;48.728;8.968;2022-10-31T09:27:08;5.70;;;3.50;;
6821;SDS011;3449;48.728;8.968;2022-10-31T09:29:35;5.90;;;2.40;;
6821;SDS011;3449;48.728;8.968;2022-10-31T09:32:02;16.67;;;3.07;;
6821;SDS011;3449;48.728;8.968;2022-10-31T09:34:29;5.53;;;2.70;;
6821;SDS011;3449;48.728;8.968;2022-10-31T09:36:56;11.27;;;3.40;;
6821;SDS011;3449;48.728;8.968;2022-10-31T09:39:23;7.83;;;3.30;;
6821;SDS011;3449;48.728;8.968;2022-10-31T09:41:56;6.63;;;3.63;;
6821;SDS011;3449;48.728;8.968;2022-10-31T09:44:33;8.10;;;3.43;;
6821;SDS011;3449;48.728;8.968;2022-10-31T09:47:13;9.03;;;3.57;;
6821;SDS011;3449;48.728;8.968;2022-10-31T09:49:53;8.93;;;3.60;;
6821;SDS011;3449;48.728;8.968;2022-10-31T09:52:36;4.73;;;2.93;;
6821;SDS011;3449;48.728;8.968;2022-10-31T09:55:09;5.57;;;3.30;;
6821;SDS011;3449;48.728;8.968;2022-10-31T09:57:41;8.00;;;3.13;;
6821;SDS011;3449;48.728;8.968;2022-10-31T10:00:14;7.43;;;3.60;;
6821;SDS011;3449;48.728;8.968;2022-10-31T10:02:44;7.33;;;2.80;;
6821;SDS011;3449;48.728;8.968;2022-10-31T10:05:14;7.03;;;3.50;;
6821;SDS011;3449;48.728;8.968;2022-10-31T10:07:53;15.33;;;2.60;;
6821;SDS011;3449;48.728;8.968;2022-10-31T10:10:30;7.30;;;3.47;;
6821;SDS011;3449;48.728;8.968;2022-10-31T10:13:08;7.07;;;3.30;;
6821;SDS011;3449;48.728;8.968;2022-10-31T10:15:59;7.73;;;3.60;;
6821;SDS011;3449;48.728;8.968;2022-10-31T10:18:36;10.40;;;3.43;;
6821;SDS011;3449;48.728;8.968;2022-10-31T10:21:12;7.37;;;3.73;;
6821;SDS011;3449;48.728;8.968;2022-10-31T10:23:52;5.07;;;3.17;;
6821;SDS011;3449;48.728;8.968;2022-10-31T10:26:29;6.43;;;3.30;;
6821;SDS011;3449;48.728;8.968;2022-10-31T10:29:02;13.30;;;3.37;;
6821;SDS011;3449;48.728;8.968;2022-10-31T10:31:42;7.70;;;3.53;;
6821;SDS011;3449;48.728;8.968;2022-10-31T10:34:13;6.87;;;2.70;;
6821;SDS011;3449;48.728;8.968;2022-10-31T10:36:47;12.37;;;3.07;;
6821;SDS011;3449;48.728;8.968;2022-10-31T10:39:18;9.37;;;3.40;;
6821;SDS011;3449;48.728;8.968;2022-10-31T10:41:49;9.87;;;3.60;;
6821;SDS011;3449;48.728;8.968;2022-10-31T10:44:39;5.33;;;2.90;;
6821;SDS011;3449;48.728;8.968;2022-10-31T10:47:30;14.93;;;3.50;;
6821;SDS011;3449;48.728;8.968;2022-10-31T10:50:07;11.97;;;4.33;;
6821;SDS011;3449;48.728;8.968;2022-10-31T10:52:41;5.67;;;3.60;;
6821;SDS011;3449;48.728;8.968;2022-10-31T10:55:16;8.33;;;3.70;;
6821;SDS011;3449;48.728;8.968;2022-10-31T10:57:54;8.17;;;4.37;;
6821;SDS011;3449;48.728;8.968;2022-10-31T11:00:23;11.77;;;4.93;;
6821;SDS011;3449;48.728;8.968;2022-10-31T11:02:52;11.40;;;3.77;;
6821;SDS011;3449;48.728;8.968;2022-10-31T11:05:24;8.77;;;3.77;;
6821;SDS011;3449;48.728;8.968;2022-10-31T11:07:56;7.50;;;4.20;;
6821;SDS011;3449;48.728;8.968;2022-10-31T11:10:23;8.27;;;4.80;;
6821;SDS011;3449;48.728;8.968;2022-10-31T11:12:58;15.10;;;5.80;;
6821;SDS011;3449;48.728;8.968;2022-10-31T11:15:28;18.57;;;5.07;;
6821;SDS011;3449;48.728;8.968;2022-10-31T11:18:01;7.30;;;3.67;;
6821;SDS011;3449;48.728;8.968;2022-10-31T11:20:29;14.83;;;6.40;;
6821;SDS011;3449;48.728;8.968;2022-10-31T11:23:04;16.60;;;6.17;;
6821;SDS011;3449;48.728;8.968;2022-10-31T11:25:47;13.73;;;6.77;;
6821;SDS011;3449;48.728;8.968;2022-10-31T11:28:16;17.90;;;5.90;;
6821;SDS011;3449;48.728;8.968;2022-10-31T11:30:45;8.13;;;4.50;;
6821;SDS011;3449;48.728;8.968;2022-10-31T11:33:19;11.13;;;3.70;;
6821;SDS011;3449;48.728;8.968;2022-10-31T11:35:53;6.17;;;4.10;;
6821;SDS011;3449;48.728;8.968;2022-10-31T11:38:33;9.13;;;3.73;;
6821;SDS011;3449;48.728;8.968;2022-10-31T11:41:14;8.10;;;4.70;;
6821;SDS011;3449;48.728;8.968;2022-10-31T11:43:46;8.17;;;4.10;;
6821;SDS011;3449;48.728;8.968;2022-10-31T11:46:19;12.60;;;3.93;;
6821;SDS011;3449;48.728;8.968;2022-10-31T11:48:57;11.73;;;3.90;;
6821;SDS011;3449;48.728;8.968;2022-10-31T11:51:27;12.03;;;4.40;;
6821;SDS011;3449;48.728;8.968;2022-10-31T11:53:59;9.50;;;4.13;;
6821;SDS011;3449;48.728;8.968;2022-10-31T11:56:37;12.53;;;4.77;;
6821;SDS011;3449;48.728;8.968;2022-10-31T11:59:14;7.87;;;3.37;;
6821;SDS011;3449;48.728;8.968;2022-10-31T12:01:52;12.67;;;3.47;;
6821;SDS011;3449;48.728;8.968;2022-10-31T12:04:27;6.33;;;3.60;;
6821;SDS011;3449;48.728;8.968;2022-10-31T12:07:01;6.17;;;3.33;;
6821;SDS011;3449;48.728;8.968;2022-10-31T12:09:32;9.57;;;4.27;;
6821;SDS011;3449;48.728;8.968;2022-10-31T12:12:16;9.40;;;3.40;;
6821;SDS011;3449;48.728;8.968;2022-10-31T12:15:19;14.87;;;3.60;;
6821;SDS011;3449;48.728;8.968;2022-10-31T12:17:57;7.53;;;3.80;;
6821;SDS011;3449;48.728;8.968;2022-10-31T12:20:48;9.63;;;2.97;;
6821;SDS011;3449;48.728;8.968;2022-10-31T12:23:24;6.97;;;3.20;;
6821;SDS011;3449;48.728;8.968;2022-10-31T12:25:59;5.67;;;2.70;;
6821;SDS011;3449;48.728;8.968;2022-10-31T12:28:50;6.93;;;3.00;;
6821;SDS011;3449;48.728;8.968;2022-10-31T12:31:32;9.03;;;3.43;;
6821;SDS011;3449;48.728;8.968;2022-10-31T12:37:25;5.93;;;2.73;;
6821;SDS011;3449;48.728;8.968;2022-10-31T12:40:12;7.27;;;3.23;;
6821;SDS011;3449;48.728;8.968;2022-10-31T12:43:00;8.83;;;4.00;;
6821;SDS011;3449;48.728;8.968;2022-10-31T12:45:39;8.67;;;2.70;;
6821;SDS011;3449;48.728;8.968;2022-10-31T12:48:30;9.10;;;4.00;;
6821;SDS011;3449;48.728;8.968;2022-10-31T12:51:32;5.77;;;2.50;;
6821;SDS011;3449;48.728;8.968;2022-10-31T12:56:57;5.97;;;3.50;;
6821;SDS011;3449;48.728;8.968;2022-10-31T12:59:35;6.80;;;3.57;;
6821;SDS011;3449;48.728;8.968;2022-10-31T13:02:09;6.67;;;4.10;;
6821;SDS011;3449;48.728;8.968;2022-10-31T13:04:41;5.50;;;3.17;;
6821;SDS011;3449;48.728;8.968;2022-10-31T13:07:20;9.97;;;3.70;;
6821;SDS011;3449;48.728;8.968;2022-10-31T13:09:53;6.63;;;3.67;;
6821;SDS011;3449;48.728;8.968;2022-10-31T13:12:25;8.00;;;3.40;;
6821;SDS011;3449;48.728;8.968;2022-10-31T13:14:56;11.20;;;3.57;;
6821;SDS011;3449;48.728;8.968;2022-10-31T13:17:28;10.10;;;3.87;;
6821;SDS011;3449;48.728;8.968;2022-10-31T13:20:03;7.80;;;4.20;;
6821;SDS011;3449;48.728;8.968;2022-10-31T13:22:39;9.53;;;3.17;;
6821;SDS011;3449;48.728;8.968;2022-10-31T13:25:13;4.13;;;2.90;;
6821;SDS011;3449;48.728;8.968;2022-10-31T13:27:45;14.07;;;2.97;;
6821;SDS011;3449;48.728;8.968;2022-10-31T13:30:17;8.60;;;3.60;;
6821;SDS011;3449;48.728;8.968;2022-10-31T13:32:47;13.07;;;3.47;;
6821;SDS011;3449;48.728;8.968;2022-10-31T13:35:21;5.80;;;3.13;;
6821;SDS011;3449;48.728;8.968;2022-10-31T13:37:54;3.77;;;2.83;;
6821;SDS011;3449;48.728;8.968;2022-10-31T13:40:32;6.77;;;3.13;;
6821;SDS011;3449;48.728;8.968;2022-10-31T13:43:06;6.60;;;3.13;;
6821;SDS011;3449;48.728;8.968;2022-10-31T13:45:47;9.50;;;3.00;;
6821;SDS011;3449;48.728;8.968;2022-10-31T13:48:31;7.67;;;3.03;;
6821;SDS011;3449;48.728;8.968;2022-10-31T13:51:01;5.57;;;2.43;;
6821;SDS011;3449;48.728;8.968;2022-10-31T13:53:38;6.17;;;2.50;;
6821;SDS011;3449;48.728;8.968;2022-10-31T13:56:16;11.17;;;3.17;;
6821;SDS011;3449;48.728;8.968;2022-10-31T13:58:59;16.33;;;3.30;;
6821;SDS011;3449;48.728;8.968;2022-10-31T14:01:45;5.63;;;2.67;;
6821;SDS011;3449;48.728;8.968;2022-10-31T14:04:14;7.83;;;3.13;;
6821;SDS011;3449;48.728;8.968;2022-10-31T14:06:45;5.83;;;3.50;;
6821;SDS011;3449;48.728;8.968;2022-10-31T14:09:28;9.83;;;3.40;;
6821;SDS011;3449;48.728;8.968;2022-10-31T14:12:01;5.87;;;2.50;;
6821;SDS011;3449;48.728;8.968;2022-10-31T14:14:31;6.30;;;3.00;;
6821;SDS011;3449;48.728;8.968;2022-10-31T14:17:16;5.70;;;2.37;;
6821;SDS011;3449;48.728;8.968;2022-10-31T14:19:56;5.63;;;2.73;;
6821;SDS011;3449;48.728;8.968;2022-10-31T14:22:29;5.47;;;3.20;;
6821;SDS011;3449;48.728;8.968;2022-10-31T14:24:57;7.93;;;2.53;;
6821;SDS011;3449;48.728;8.968;2022-10-31T14:27:34;8.20;;;3.37;;
6821;SDS011;3449;48.728;8.968;2022-10-31T14:30:15;6.07;;;2.80;;
6821;SDS011;3449;48.728;8.968;2022-10-31T14:32:44;6.47;;;2.50;;
6821;SDS011;3449;48.728;8.968;2022-10-31T14:35:16;7.70;;;3.20;;
6821;SDS011;3449;48.728;8.968;2022-10-31T14:40:35;4.80;;;2.30;;
6821;SDS011;3449;48.728;8.968;2022-10-31T14:43:34;11.40;;;2.77;;
6821;SDS011;3449;48.728;8.968;2022-10-31T14:46:32;8.33;;;3.00;;
6821;SDS011;3449;48.728;8.968;2022-10-31T14:49:18;5.70;;;3.17;;
6821;SDS011;3449;48.728;8.968;2022-10-31T14:51:57;8.83;;;3.30;;
6821;SDS011;3449;48.728;8.968;2022-10-31T14:54:25;3.23;;;2.63;;
6821;SDS011;3449;48.728;8.968;2022-10-31T14:56:56;8.90;;;3.63;;
6821;SDS011;3449;48.728;8.968;2022-10-31T14:59:30;4.30;;;2.87;;
6821;SDS011;3449;48.728;8.968;2022-10-31T15:02:00;8.97;;;3.10;;
6821;SDS011;3449;48.728;8.968;2022-10-31T15:04:35;7.73;;;3.27;;
6821;SDS011;3449;48.728;8.968;2022-10-31T15:07:04;4.60;;;2.97;;
6821;SDS011;3449;48.728;8.968;2022-10-31T15:09:37;10.00;;;3.30;;
6821;SDS011;3449;48.728;8.968;2022-10-31T15:12:21;6.10;;;2.97;;
6821;SDS011;3449;48.728;8.968;2022-10-31T15:14:51;3.17;;;2.60;;
6821;SDS011;3449;48.728;8.968;2022-10-31T15:17:18;5.50;;;2.30;;
6821;SDS011;3449;48.728;8.968;2022-10-31T15:19:46;6.50;;;3.10;;
6821;SDS011;3449;48.728;8.968;2022-10-31T15:22:14;3.53;;;2.50;;
6821;SDS011;3449;48.728;8.968;2022-10-31T15:24:43;6.20;;;2.67;;
6821;SDS011;3449;48.728;8.968;2022-10-31T15:27:11;5.87;;;2.60;;
6821;SDS011;3449;48.728;8.968;2022-10-31T15:29:47;9.17;;;3.10;;
6821;SDS011;3449;48.728;8.968;2022-10-31T15:32:17;7.73;;;3.33;;
6821;SDS011;3449;48.728;8.968;2022-10-31T15:34:47;4.77;;;2.37;;
6821;SDS011;3449;48.728;8.968;2022-10-31T15:37:16;4.40;;;2.93;;
6821;SDS011;3449;48.728;8.968;2022-10-31T15:39:44;8.40;;;3.40;;
6821;SDS011;3449;48.728;8.968;2022-10-31T15:42:14;6.73;;;3.07;;
6821;SDS011;3449;48.728;8.968;2022-10-31T15:44:46;5.43;;;3.30;;
6821;SDS011;3449;48.728;8.968;2022-10-31T15:47:17;9.20;;;3.37;;
6821;SDS011;3449;48.728;8.968;2022-10-31T15:49:47;6.90;;;3.00;;
6821;SDS011;3449;48.728;8.968;2022-10-31T15:52:17;9.67;;;3.57;;
6821;SDS011;3449;48.728;8.968;2022-10-31T15:54:53;12.00;;;3.10;;